sensor_id;sensor_type;location;lat;lon;timestamp;P1;durP1;ratioP1;P2;durP2;ratioP2
68074;SDS011;54864;52.002;5.468;2023-11-19T00:00:26;16.80;;;7.10;;
68074;SDS011;54864;52.002;5.468;2023-11-19T00:01:49;21.85;;;7.72;;
68074;SDS011;54864;52.002;5.468;2023-11-19T00:03:10;19.73;;;7.32;;
68074;SDS011;54864;52.002;5.468;2023-11-19T00:04:34;19.43;;;7.23;;
68074;SDS011;54864;52.002;5.468;2023-11-19T00:05:58;15.27;;;7.22;;
68074;SDS011;54864;52.002;5.468;2023-11-19T00:07:20;16.77;;;6.88;;
68074;SDS011;54864;52.002;5.468;2023-11-19T00:08:41;16.90;;;6.50;;
68074;SDS011;54864;52.002;5.468;2023-11-19T00:10:04;18.58;;;7.18;;
68074;SDS011;54864;52.002;5.468;2023-11-19T00:11:28;16.60;;;6.80;;
68074;SDS011;54864;52.002;5.468;2023-11-19T00:12:50;19.73;;;6.57;;
68074;SDS011;54864;52.002;5.468;2023-11-19T00:14:12;22.00;;;7.75;;
68074;SDS011;54864;52.002;5.468;2023-11-19T00:15:34;19.58;;;6.55;;
68074;SDS011;54864;52.002;5.468;2023-11-19T00:16:55;16.35;;;7.05;;
68074;SDS011;54864;52.002;5.468;2023-11-19T00:18:17;18.13;;;6.93;;
68074;SDS011;54864;52.002;5.468;2023-11-19T00:19:38;24.15;;;8.23;;
68074;SDS011;54864;52.002;5.468;2023-11-19T00:21:00;22.42;;;7.78;;
68074;SDS011;54864;52.002;5.468;2023-11-19T00:22:22;21.45;;;7.63;;
68074;SDS011;54864;52.002;5.468;2023-11-19T00:23:46;25.50;;;7.65;;
68074;SDS011;54864;52.002;5.468;2023-11-19T00:25:07;17.58;;;6.97;;
68074;SDS011;54864;52.002;5.468;2023-11-19T00:26:31;20.25;;;7.88;;
68074;SDS011;54864;52.002;5.468;2023-11-19T00:27:52;23.08;;;7.82;;
68074;SDS011;54864;52.002;5.468;2023-11-19T00:29:16;23.33;;;6.95;;
68074;SDS011;54864;52.002;5.468;2023-11-19T00:30:39;24.15;;;7.53;;
68074;SDS011;54864;52.002;5.468;2023-11-19T00:32:02;31.10;;;8.40;;
68074;SDS011;54864;52.002;5.468;2023-11-19T00:33:23;23.55;;;7.45;;
68074;SDS011;54864;52.002;5.468;2023-11-19T00:34:45;23.95;;;7.05;;
68074;SDS011;54864;52.002;5.468;2023-11-19T00:36:08;23.05;;;7.55;;
68074;SDS011;54864;52.002;5.468;2023-11-19T00:37:31;20.75;;;6.50;;
68074;SDS011;54864;52.002;5.468;2023-11-19T00:38:52;30.92;;;7.60;;
68074;SDS011;54864;52.002;5.468;2023-11-19T00:40:14;25.38;;;7.72;;
68074;SDS011;54864;52.002;5.468;2023-11-19T00:41:40;28.20;;;7.82;;
68074;SDS011;54864;52.002;5.468;2023-11-19T00:43:02;27.83;;;7.90;;
68074;SDS011;54864;52.002;5.468;2023-11-19T00:44:24;23.43;;;6.93;;
68074;SDS011;54864;52.002;5.468;2023-11-19T00:45:45;24.52;;;7.65;;
68074;SDS011;54864;52.002;5.468;2023-11-19T00:47:10;24.33;;;7.30;;
68074;SDS011;54864;52.002;5.468;2023-11-19T00:48:32;26.48;;;7.50;;
68074;SDS011;54864;52.002;5.468;2023-11-19T00:49:54;25.90;;;7.45;;
68074;SDS011;54864;52.002;5.468;2023-11-19T00:51:15;24.88;;;7.80;;
68074;SDS011;54864;52.002;5.468;2023-11-19T00:52:37;29.33;;;7.70;;
68074;SDS011;54864;52.002;5.468;2023-11-19T00:53:58;29.30;;;7.47;;
68074;SDS011;54864;52.002;5.468;2023-11-19T00:55:21;32.83;;;7.93;;
68074;SDS011;54864;52.002;5.468;2023-11-19T00:56:43;27.92;;;7.22;;
68074;SDS011;54864;52.002;5.468;2023-11-19T00:58:06;28.70;;;7.85;;
68074;SDS011;54864;52.002;5.468;2023-11-19T00:59:27;28.53;;;7.90;;
68074;SDS011;54864;52.002;5.468;2023-11-19T01:00:50;25.13;;;6.55;;
68074;SDS011;54864;52.002;5.468;2023-11-19T01:02:11;24.05;;;7.28;;
68074;SDS011;54864;52.002;5.468;2023-11-19T01:03:34;23.98;;;7.22;;
68074;SDS011;54864;52.002;5.468;2023-11-19T01:04:55;31.90;;;7.85;;
68074;SDS011;54864;52.002;5.468;2023-11-19T01:06:26;31.85;;;7.05;;
68074;SDS011;54864;52.002;5.468;2023-11-19T01:07:48;30.23;;;7.43;;
68074;SDS011;54864;52.002;5.468;2023-11-19T01:09:10;28.13;;;7.65;;
68074;SDS011;54864;52.002;5.468;2023-11-19T01:10:31;27.52;;;7.35;;
68074;SDS011;54864;52.002;5.468;2023-11-19T01:11:55;29.60;;;7.13;;
68074;SDS011;54864;52.002;5.468;2023-11-19T01:13:17;33.10;;;6.65;;
68074;SDS011;54864;52.002;5.468;2023-11-19T01:14:39;27.52;;;7.32;;
68074;SDS011;54864;52.002;5.468;2023-11-19T01:16:00;29.80;;;7.30;;
68074;SDS011;54864;52.002;5.468;2023-11-19T01:17:22;30.40;;;6.95;;
68074;SDS011;54864;52.002;5.468;2023-11-19T01:18:44;27.17;;;7.60;;
68074;SDS011;54864;52.002;5.468;2023-11-19T01:20:06;32.33;;;6.82;;
68074;SDS011;54864;52.002;5.468;2023-11-19T01:21:32;28.52;;;7.07;;
68074;SDS011;54864;52.002;5.468;2023-11-19T01:22:54;25.90;;;6.93;;
68074;SDS011;54864;52.002;5.468;2023-11-19T01:24:16;34.20;;;7.20;;
68074;SDS011;54864;52.002;5.468;2023-11-19T01:25:38;34.35;;;7.53;;
68074;SDS011;54864;52.002;5.468;2023-11-19T01:27:01;35.35;;;7.47;;
68074;SDS011;54864;52.002;5.468;2023-11-19T01:28:22;42.27;;;8.33;;
68074;SDS011;54864;52.002;5.468;2023-11-19T01:29:44;25.65;;;6.75;;
68074;SDS011;54864;52.002;5.468;2023-11-19T01:31:05;31.83;;;7.30;;
68074;SDS011;54864;52.002;5.468;2023-11-19T01:32:29;28.45;;;6.38;;
68074;SDS011;54864;52.002;5.468;2023-11-19T01:33:50;33.72;;;7.38;;
68074;SDS011;54864;52.002;5.468;2023-11-19T01:35:12;32.75;;;7.53;;
68074;SDS011;54864;52.002;5.468;2023-11-19T01:36:33;34.92;;;7.78;;
68074;SDS011;54864;52.002;5.468;2023-11-19T01:37:55;32.55;;;7.00;;
68074;SDS011;54864;52.002;5.468;2023-11-19T01:39:16;34.45;;;6.82;;
68074;SDS011;54864;52.002;5.468;2023-11-19T01:40:40;33.00;;;7.43;;
68074;SDS011;54864;52.002;5.468;2023-11-19T01:42:02;32.95;;;7.43;;
68074;SDS011;54864;52.002;5.468;2023-11-19T01:43:31;34.88;;;6.88;;
68074;SDS011;54864;52.002;5.468;2023-11-19T01:44:57;36.80;;;7.57;;
68074;SDS011;54864;52.002;5.468;2023-11-19T01:46:21;30.27;;;8.40;;
68074;SDS011;54864;52.002;5.468;2023-11-19T01:47:42;33.10;;;7.20;;
68074;SDS011;54864;52.002;5.468;2023-11-19T01:49:04;27.73;;;6.82;;
68074;SDS011;54864;52.002;5.468;2023-11-19T01:50:26;30.85;;;7.13;;
68074;SDS011;54864;52.002;5.468;2023-11-19T01:51:49;28.20;;;7.00;;
68074;SDS011;54864;52.002;5.468;2023-11-19T01:53:10;35.22;;;7.13;;
68074;SDS011;54864;52.002;5.468;2023-11-19T01:54:32;34.88;;;6.50;;
68074;SDS011;54864;52.002;5.468;2023-11-19T01:55:54;33.20;;;7.57;;
68074;SDS011;54864;52.002;5.468;2023-11-19T01:57:18;30.00;;;7.15;;
68074;SDS011;54864;52.002;5.468;2023-11-19T01:58:40;35.22;;;7.28;;
68074;SDS011;54864;52.002;5.468;2023-11-19T02:00:04;38.78;;;7.32;;
68074;SDS011;54864;52.002;5.468;2023-11-19T02:01:27;43.42;;;8.05;;
68074;SDS011;54864;52.002;5.468;2023-11-19T02:02:50;33.58;;;7.05;;
68074;SDS011;54864;52.002;5.468;2023-11-19T02:04:13;34.83;;;7.55;;
68074;SDS011;54864;52.002;5.468;2023-11-19T02:05:36;28.20;;;6.63;;
68074;SDS011;54864;52.002;5.468;2023-11-19T02:06:58;35.35;;;8.55;;
68074;SDS011;54864;52.002;5.468;2023-11-19T02:08:20;31.00;;;6.40;;
68074;SDS011;54864;52.002;5.468;2023-11-19T02:09:43;34.88;;;7.38;;
68074;SDS011;54864;52.002;5.468;2023-11-19T02:11:04;34.35;;;7.57;;
68074;SDS011;54864;52.002;5.468;2023-11-19T02:12:28;28.27;;;8.40;;
68074;SDS011;54864;52.002;5.468;2023-11-19T02:13:50;29.33;;;6.72;;
68074;SDS011;54864;52.002;5.468;2023-11-19T02:15:12;38.45;;;8.35;;
68074;SDS011;54864;52.002;5.468;2023-11-19T02:16:33;34.80;;;8.23;;
68074;SDS011;54864;52.002;5.468;2023-11-19T02:17:55;40.70;;;9.38;;
68074;SDS011;54864;52.002;5.468;2023-11-19T02:19:18;36.92;;;7.50;;
68074;SDS011;54864;52.002;5.468;2023-11-19T02:20:41;36.45;;;8.80;;
68074;SDS011;54864;52.002;5.468;2023-11-19T02:22:04;43.03;;;8.15;;
68074;SDS011;54864;52.002;5.468;2023-11-19T02:23:26;38.57;;;9.27;;
68074;SDS011;54864;52.002;5.468;2023-11-19T02:24:49;37.58;;;8.45;;
68074;SDS011;54864;52.002;5.468;2023-11-19T02:26:14;43.70;;;7.97;;
68074;SDS011;54864;52.002;5.468;2023-11-19T02:27:43;44.28;;;10.18;;
68074;SDS011;54864;52.002;5.468;2023-11-19T02:29:08;45.67;;;8.95;;
68074;SDS011;54864;52.002;5.468;2023-11-19T02:30:30;47.35;;;9.52;;
68074;SDS011;54864;52.002;5.468;2023-11-19T02:31:52;49.60;;;9.57;;
68074;SDS011;54864;52.002;5.468;2023-11-19T02:33:15;45.22;;;9.50;;
68074;SDS011;54864;52.002;5.468;2023-11-19T02:34:37;39.08;;;9.43;;
68074;SDS011;54864;52.002;5.468;2023-11-19T02:35:58;43.20;;;9.18;;
68074;SDS011;54864;52.002;5.468;2023-11-19T02:37:21;52.33;;;9.85;;
68074;SDS011;54864;52.002;5.468;2023-11-19T02:38:43;39.97;;;9.35;;
68074;SDS011;54864;52.002;5.468;2023-11-19T02:40:06;39.90;;;9.65;;
68074;SDS011;54864;52.002;5.468;2023-11-19T02:41:29;45.70;;;9.70;;
68074;SDS011;54864;52.002;5.468;2023-11-19T02:42:53;46.30;;;10.65;;
68074;SDS011;54864;52.002;5.468;2023-11-19T02:44:16;47.85;;;10.75;;
68074;SDS011;54864;52.002;5.468;2023-11-19T02:45:38;43.92;;;9.68;;
68074;SDS011;54864;52.002;5.468;2023-11-19T02:46:59;45.50;;;10.13;;
68074;SDS011;54864;52.002;5.468;2023-11-19T02:48:23;48.72;;;10.65;;
68074;SDS011;54864;52.002;5.468;2023-11-19T02:49:45;54.30;;;10.95;;
68074;SDS011;54864;52.002;5.468;2023-11-19T02:51:08;43.22;;;9.73;;
68074;SDS011;54864;52.002;5.468;2023-11-19T02:52:30;45.85;;;11.13;;
68074;SDS011;54864;52.002;5.468;2023-11-19T02:53:55;43.75;;;9.57;;
68074;SDS011;54864;52.002;5.468;2023-11-19T02:55:17;45.30;;;10.00;;
68074;SDS011;54864;52.002;5.468;2023-11-19T02:56:42;56.58;;;10.98;;
68074;SDS011;54864;52.002;5.468;2023-11-19T02:58:05;46.33;;;10.05;;
68074;SDS011;54864;52.002;5.468;2023-11-19T02:59:40;53.25;;;10.75;;
68074;SDS011;54864;52.002;5.468;2023-11-19T03:01:03;45.80;;;10.15;;
68074;SDS011;54864;52.002;5.468;2023-11-19T03:02:33;51.50;;;10.63;;
68074;SDS011;54864;52.002;5.468;2023-11-19T03:03:54;57.97;;;10.85;;
68074;SDS011;54864;52.002;5.468;2023-11-19T03:05:18;43.78;;;10.30;;
68074;SDS011;54864;52.002;5.468;2023-11-19T03:06:40;51.55;;;9.82;;
68074;SDS011;54864;52.002;5.468;2023-11-19T03:08:02;51.53;;;9.82;;
68074;SDS011;54864;52.002;5.468;2023-11-19T03:09:23;49.40;;;11.13;;
68074;SDS011;54864;52.002;5.468;2023-11-19T03:10:46;59.85;;;11.63;;
68074;SDS011;54864;52.002;5.468;2023-11-19T03:12:07;60.95;;;11.38;;
68074;SDS011;54864;52.002;5.468;2023-11-19T03:13:31;61.65;;;11.27;;
68074;SDS011;54864;52.002;5.468;2023-11-19T03:14:52;54.00;;;11.23;;
68074;SDS011;54864;52.002;5.468;2023-11-19T03:16:15;54.65;;;10.88;;
68074;SDS011;54864;52.002;5.468;2023-11-19T03:17:38;53.15;;;10.95;;
68074;SDS011;54864;52.002;5.468;2023-11-19T03:19:01;55.53;;;11.38;;
68074;SDS011;54864;52.002;5.468;2023-11-19T03:20:22;66.35;;;11.75;;
68074;SDS011;54864;52.002;5.468;2023-11-19T03:21:48;54.15;;;11.80;;
68074;SDS011;54864;52.002;5.468;2023-11-19T03:23:09;52.58;;;11.27;;
68074;SDS011;54864;52.002;5.468;2023-11-19T03:24:31;58.33;;;12.13;;
68074;SDS011;54864;52.002;5.468;2023-11-19T03:25:52;52.78;;;10.10;;
68074;SDS011;54864;52.002;5.468;2023-11-19T03:27:15;47.50;;;10.35;;
68074;SDS011;54864;52.002;5.468;2023-11-19T03:28:37;62.50;;;11.65;;
68074;SDS011;54864;52.002;5.468;2023-11-19T03:30:00;49.55;;;11.27;;
68074;SDS011;54864;52.002;5.468;2023-11-19T03:31:21;51.08;;;10.98;;
68074;SDS011;54864;52.002;5.468;2023-11-19T03:32:43;52.03;;;11.68;;
68074;SDS011;54864;52.002;5.468;2023-11-19T03:34:05;50.15;;;11.98;;
68074;SDS011;54864;52.002;5.468;2023-11-19T03:35:26;46.25;;;10.10;;
68074;SDS011;54864;52.002;5.468;2023-11-19T03:36:48;54.08;;;11.48;;
68074;SDS011;54864;52.002;5.468;2023-11-19T03:38:09;50.75;;;11.18;;
68074;SDS011;54864;52.002;5.468;2023-11-19T03:39:31;58.27;;;11.13;;
68074;SDS011;54864;52.002;5.468;2023-11-19T03:40:53;51.55;;;12.23;;
68074;SDS011;54864;52.002;5.468;2023-11-19T03:42:15;48.35;;;11.23;;
68074;SDS011;54864;52.002;5.468;2023-11-19T03:43:37;50.20;;;9.75;;
68074;SDS011;54864;52.002;5.468;2023-11-19T03:45:00;64.00;;;12.98;;
68074;SDS011;54864;52.002;5.468;2023-11-19T03:46:21;53.13;;;11.20;;
68074;SDS011;54864;52.002;5.468;2023-11-19T03:47:43;54.35;;;11.40;;
68074;SDS011;54864;52.002;5.468;2023-11-19T03:49:05;57.90;;;11.70;;
68074;SDS011;54864;52.002;5.468;2023-11-19T03:50:27;54.00;;;11.27;;
68074;SDS011;54864;52.002;5.468;2023-11-19T03:51:49;52.55;;;11.63;;
68074;SDS011;54864;52.002;5.468;2023-11-19T03:53:11;63.28;;;13.13;;
68074;SDS011;54864;52.002;5.468;2023-11-19T03:54:32;54.00;;;11.30;;
68074;SDS011;54864;52.002;5.468;2023-11-19T03:55:54;61.10;;;11.65;;
68074;SDS011;54864;52.002;5.468;2023-11-19T03:57:16;59.88;;;11.63;;
68074;SDS011;54864;52.002;5.468;2023-11-19T03:58:40;60.70;;;12.63;;
68074;SDS011;54864;52.002;5.468;2023-11-19T04:00:01;61.92;;;11.63;;
68074;SDS011;54864;52.002;5.468;2023-11-19T04:01:29;55.70;;;11.90;;
68074;SDS011;54864;52.002;5.468;2023-11-19T04:02:50;50.80;;;11.57;;
68074;SDS011;54864;52.002;5.468;2023-11-19T04:04:13;56.03;;;11.45;;
68074;SDS011;54864;52.002;5.468;2023-11-19T04:05:35;46.63;;;11.18;;
68074;SDS011;54864;52.002;5.468;2023-11-19T04:06:57;54.55;;;12.35;;
68074;SDS011;54864;52.002;5.468;2023-11-19T04:08:18;51.60;;;11.85;;
68074;SDS011;54864;52.002;5.468;2023-11-19T04:09:41;58.92;;;12.50;;
68074;SDS011;54864;52.002;5.468;2023-11-19T04:11:02;54.53;;;11.63;;
68074;SDS011;54864;52.002;5.468;2023-11-19T04:12:25;64.75;;;13.30;;
68074;SDS011;54864;52.002;5.468;2023-11-19T04:13:48;56.67;;;12.85;;
68074;SDS011;54864;52.002;5.468;2023-11-19T04:15:10;61.67;;;12.27;;
68074;SDS011;54864;52.002;5.468;2023-11-19T04:16:32;55.42;;;12.38;;
68074;SDS011;54864;52.002;5.468;2023-11-19T04:17:54;63.10;;;11.90;;
68074;SDS011;54864;52.002;5.468;2023-11-19T04:19:15;58.47;;;11.50;;
68074;SDS011;54864;52.002;5.468;2023-11-19T04:20:37;56.00;;;11.38;;
68074;SDS011;54864;52.002;5.468;2023-11-19T04:21:58;54.90;;;11.45;;
68074;SDS011;54864;52.002;5.468;2023-11-19T04:23:20;57.58;;;11.80;;
68074;SDS011;54864;52.002;5.468;2023-11-19T04:24:42;50.53;;;11.68;;
68074;SDS011;54864;52.002;5.468;2023-11-19T04:26:06;55.15;;;11.63;;
68074;SDS011;54864;52.002;5.468;2023-11-19T04:27:27;60.20;;;12.27;;
68074;SDS011;54864;52.002;5.468;2023-11-19T04:28:51;58.97;;;11.93;;
68074;SDS011;54864;52.002;5.468;2023-11-19T04:30:13;60.13;;;11.00;;
68074;SDS011;54864;52.002;5.468;2023-11-19T04:31:35;54.53;;;11.27;;
68074;SDS011;54864;52.002;5.468;2023-11-19T04:32:56;55.85;;;11.35;;
68074;SDS011;54864;52.002;5.468;2023-11-19T04:34:18;51.67;;;11.48;;
68074;SDS011;54864;52.002;5.468;2023-11-19T04:35:40;63.40;;;11.48;;
68074;SDS011;54864;52.002;5.468;2023-11-19T04:37:02;43.90;;;10.38;;
68074;SDS011;54864;52.002;5.468;2023-11-19T04:38:25;51.97;;;11.82;;
68074;SDS011;54864;52.002;5.468;2023-11-19T04:39:47;54.10;;;10.82;;
68074;SDS011;54864;52.002;5.468;2023-11-19T04:41:09;61.83;;;12.13;;
68074;SDS011;54864;52.002;5.468;2023-11-19T04:42:30;62.80;;;12.35;;
68074;SDS011;54864;52.002;5.468;2023-11-19T04:43:54;62.58;;;13.63;;
68074;SDS011;54864;52.002;5.468;2023-11-19T04:45:15;60.13;;;13.00;;
68074;SDS011;54864;52.002;5.468;2023-11-19T04:46:37;55.70;;;12.25;;
68074;SDS011;54864;52.002;5.468;2023-11-19T04:47:58;52.20;;;11.18;;
68074;SDS011;54864;52.002;5.468;2023-11-19T04:49:20;61.53;;;12.52;;
68074;SDS011;54864;52.002;5.468;2023-11-19T04:50:42;48.70;;;11.75;;
68074;SDS011;54864;52.002;5.468;2023-11-19T04:52:04;49.13;;;12.05;;
68074;SDS011;54864;52.002;5.468;2023-11-19T04:53:27;53.53;;;11.27;;
68074;SDS011;54864;52.002;5.468;2023-11-19T04:54:49;63.60;;;12.15;;
68074;SDS011;54864;52.002;5.468;2023-11-19T04:56:10;70.70;;;13.43;;
68074;SDS011;54864;52.002;5.468;2023-11-19T04:57:33;61.10;;;12.27;;
68074;SDS011;54864;52.002;5.468;2023-11-19T04:58:56;54.15;;;11.05;;
68074;SDS011;54864;52.002;5.468;2023-11-19T05:00:18;52.50;;;12.13;;
68074;SDS011;54864;52.002;5.468;2023-11-19T05:01:39;64.68;;;12.68;;
68074;SDS011;54864;52.002;5.468;2023-11-19T05:03:01;65.72;;;12.60;;
68074;SDS011;54864;52.002;5.468;2023-11-19T05:04:23;55.28;;;11.93;;
68074;SDS011;54864;52.002;5.468;2023-11-19T05:05:45;66.70;;;13.07;;
68074;SDS011;54864;52.002;5.468;2023-11-19T05:07:06;57.80;;;11.23;;
68074;SDS011;54864;52.002;5.468;2023-11-19T05:08:28;74.50;;;13.88;;
68074;SDS011;54864;52.002;5.468;2023-11-19T05:09:49;54.05;;;12.65;;
68074;SDS011;54864;52.002;5.468;2023-11-19T05:11:11;68.75;;;12.27;;
68074;SDS011;54864;52.002;5.468;2023-11-19T05:12:32;49.45;;;11.70;;
68074;SDS011;54864;52.002;5.468;2023-11-19T05:13:56;62.63;;;12.25;;
68074;SDS011;54864;52.002;5.468;2023-11-19T05:15:17;50.72;;;10.38;;
68074;SDS011;54864;52.002;5.468;2023-11-19T05:16:39;61.63;;;13.10;;
68074;SDS011;54864;52.002;5.468;2023-11-19T05:18:00;48.42;;;10.25;;
68074;SDS011;54864;52.002;5.468;2023-11-19T05:19:23;62.60;;;12.60;;
68074;SDS011;54864;52.002;5.468;2023-11-19T05:20:44;65.70;;;12.13;;
68074;SDS011;54864;52.002;5.468;2023-11-19T05:22:07;67.05;;;12.80;;
68074;SDS011;54864;52.002;5.468;2023-11-19T05:23:29;56.53;;;10.93;;
68074;SDS011;54864;52.002;5.468;2023-11-19T05:24:50;58.60;;;12.20;;
68074;SDS011;54864;52.002;5.468;2023-11-19T05:26:17;65.65;;;12.20;;
68074;SDS011;54864;52.002;5.468;2023-11-19T05:27:39;59.33;;;13.13;;
68074;SDS011;54864;52.002;5.468;2023-11-19T05:29:02;53.92;;;11.30;;
68074;SDS011;54864;52.002;5.468;2023-11-19T05:30:23;55.92;;;11.70;;
68074;SDS011;54864;52.002;5.468;2023-11-19T05:31:45;62.08;;;12.27;;
68074;SDS011;54864;52.002;5.468;2023-11-19T05:33:08;62.08;;;11.80;;
68074;SDS011;54864;52.002;5.468;2023-11-19T05:34:30;67.95;;;13.43;;
68074;SDS011;54864;52.002;5.468;2023-11-19T05:35:51;60.47;;;12.15;;
68074;SDS011;54864;52.002;5.468;2023-11-19T05:37:13;62.73;;;13.63;;
68074;SDS011;54864;52.002;5.468;2023-11-19T05:38:34;50.33;;;11.52;;
68074;SDS011;54864;52.002;5.468;2023-11-19T05:39:57;62.83;;;12.32;;
68074;SDS011;54864;52.002;5.468;2023-11-19T05:41:20;55.65;;;11.88;;
68074;SDS011;54864;52.002;5.468;2023-11-19T05:42:42;57.15;;;11.13;;
68074;SDS011;54864;52.002;5.468;2023-11-19T05:44:05;56.42;;;12.00;;
68074;SDS011;54864;52.002;5.468;2023-11-19T05:45:27;52.83;;;10.82;;
68074;SDS011;54864;52.002;5.468;2023-11-19T05:46:48;56.87;;;11.43;;
68074;SDS011;54864;52.002;5.468;2023-11-19T05:48:10;60.88;;;12.18;;
68074;SDS011;54864;52.002;5.468;2023-11-19T05:49:32;56.10;;;12.40;;
68074;SDS011;54864;52.002;5.468;2023-11-19T05:50:54;66.45;;;12.00;;
68074;SDS011;54864;52.002;5.468;2023-11-19T05:52:15;51.53;;;11.87;;
68074;SDS011;54864;52.002;5.468;2023-11-19T05:53:38;55.75;;;12.30;;
68074;SDS011;54864;52.002;5.468;2023-11-19T05:54:59;54.70;;;11.85;;
68074;SDS011;54864;52.002;5.468;2023-11-19T05:56:24;59.85;;;12.63;;
68074;SDS011;54864;52.002;5.468;2023-11-19T05:57:52;63.65;;;11.80;;
68074;SDS011;54864;52.002;5.468;2023-11-19T05:59:16;64.20;;;12.82;;
68074;SDS011;54864;52.002;5.468;2023-11-19T06:00:38;62.58;;;13.35;;
68074;SDS011;54864;52.002;5.468;2023-11-19T06:02:00;58.53;;;11.73;;
68074;SDS011;54864;52.002;5.468;2023-11-19T06:03:22;60.80;;;12.13;;
68074;SDS011;54864;52.002;5.468;2023-11-19T06:04:45;59.70;;;12.82;;
68074;SDS011;54864;52.002;5.468;2023-11-19T06:06:08;57.50;;;11.25;;
68074;SDS011;54864;52.002;5.468;2023-11-19T06:07:32;53.28;;;11.98;;
68074;SDS011;54864;52.002;5.468;2023-11-19T06:08:53;63.42;;;11.80;;
68074;SDS011;54864;52.002;5.468;2023-11-19T06:10:15;56.57;;;12.07;;
68074;SDS011;54864;52.002;5.468;2023-11-19T06:11:37;59.78;;;12.57;;
68074;SDS011;54864;52.002;5.468;2023-11-19T06:12:59;66.57;;;13.50;;
68074;SDS011;54864;52.002;5.468;2023-11-19T06:14:22;67.68;;;13.35;;
68074;SDS011;54864;52.002;5.468;2023-11-19T06:15:46;70.30;;;12.38;;
68074;SDS011;54864;52.002;5.468;2023-11-19T06:17:07;67.18;;;12.38;;
68074;SDS011;54864;52.002;5.468;2023-11-19T06:18:31;66.88;;;12.25;;
68074;SDS011;54864;52.002;5.468;2023-11-19T06:19:52;57.67;;;11.73;;
68074;SDS011;54864;52.002;5.468;2023-11-19T06:21:14;55.42;;;12.57;;
68074;SDS011;54864;52.002;5.468;2023-11-19T06:22:36;61.00;;;11.82;;
68074;SDS011;54864;52.002;5.468;2023-11-19T06:23:58;68.30;;;13.52;;
68074;SDS011;54864;52.002;5.468;2023-11-19T06:25:19;62.47;;;14.07;;
68074;SDS011;54864;52.002;5.468;2023-11-19T06:26:41;61.17;;;13.38;;
68074;SDS011;54864;52.002;5.468;2023-11-19T06:28:03;55.25;;;12.02;;
68074;SDS011;54864;52.002;5.468;2023-11-19T06:29:27;61.33;;;13.25;;
68074;SDS011;54864;52.002;5.468;2023-11-19T06:30:48;60.90;;;12.23;;
68074;SDS011;54864;52.002;5.468;2023-11-19T06:32:10;65.68;;;13.10;;
68074;SDS011;54864;52.002;5.468;2023-11-19T06:33:32;67.23;;;13.77;;
68074;SDS011;54864;52.002;5.468;2023-11-19T06:34:54;62.55;;;11.95;;
68074;SDS011;54864;52.002;5.468;2023-11-19T06:36:16;54.20;;;11.73;;
68074;SDS011;54864;52.002;5.468;2023-11-19T06:37:38;55.83;;;11.48;;
68074;SDS011;54864;52.002;5.468;2023-11-19T06:39:00;62.63;;;12.95;;
68074;SDS011;54864;52.002;5.468;2023-11-19T06:40:22;64.00;;;12.23;;
68074;SDS011;54864;52.002;5.468;2023-11-19T06:41:46;61.55;;;12.40;;
68074;SDS011;54864;52.002;5.468;2023-11-19T06:43:09;74.55;;;13.77;;
68074;SDS011;54864;52.002;5.468;2023-11-19T06:44:31;57.28;;;12.50;;
68074;SDS011;54864;52.002;5.468;2023-11-19T06:45:54;62.33;;;13.15;;
68074;SDS011;54864;52.002;5.468;2023-11-19T06:47:15;61.97;;;13.73;;
68074;SDS011;54864;52.002;5.468;2023-11-19T06:48:37;59.30;;;11.55;;
68074;SDS011;54864;52.002;5.468;2023-11-19T06:49:59;61.78;;;13.82;;
68074;SDS011;54864;52.002;5.468;2023-11-19T06:51:22;54.13;;;12.30;;
68074;SDS011;54864;52.002;5.468;2023-11-19T06:52:43;77.30;;;13.98;;
68074;SDS011;54864;52.002;5.468;2023-11-19T06:54:05;58.50;;;11.77;;
68074;SDS011;54864;52.002;5.468;2023-11-19T06:55:26;52.65;;;11.90;;
68074;SDS011;54864;52.002;5.468;2023-11-19T06:56:49;59.42;;;10.82;;
68074;SDS011;54864;52.002;5.468;2023-11-19T06:58:10;57.55;;;12.32;;
68074;SDS011;54864;52.002;5.468;2023-11-19T06:59:34;65.95;;;13.52;;
68074;SDS011;54864;52.002;5.468;2023-11-19T07:00:55;66.25;;;12.95;;
68074;SDS011;54864;52.002;5.468;2023-11-19T07:02:17;68.43;;;13.20;;
68074;SDS011;54864;52.002;5.468;2023-11-19T07:03:38;59.47;;;12.37;;
68074;SDS011;54864;52.002;5.468;2023-11-19T07:05:00;61.83;;;12.37;;
68074;SDS011;54864;52.002;5.468;2023-11-19T07:06:21;71.10;;;13.02;;
68074;SDS011;54864;52.002;5.468;2023-11-19T07:07:43;68.72;;;12.70;;
68074;SDS011;54864;52.002;5.468;2023-11-19T07:09:09;72.27;;;13.63;;
68074;SDS011;54864;52.002;5.468;2023-11-19T07:10:31;65.47;;;13.82;;
68074;SDS011;54864;52.002;5.468;2023-11-19T07:11:52;56.63;;;11.63;;
68074;SDS011;54864;52.002;5.468;2023-11-19T07:13:15;61.72;;;12.65;;
68074;SDS011;54864;52.002;5.468;2023-11-19T07:14:37;58.10;;;11.73;;
68074;SDS011;54864;52.002;5.468;2023-11-19T07:15:59;63.60;;;12.23;;
68074;SDS011;54864;52.002;5.468;2023-11-19T07:17:21;67.53;;;13.68;;
68074;SDS011;54864;52.002;5.468;2023-11-19T07:18:44;60.33;;;11.90;;
68074;SDS011;54864;52.002;5.468;2023-11-19T07:20:06;64.55;;;12.32;;
68074;SDS011;54864;52.002;5.468;2023-11-19T07:21:28;56.78;;;11.82;;
68074;SDS011;54864;52.002;5.468;2023-11-19T07:22:50;65.80;;;12.25;;
68074;SDS011;54864;52.002;5.468;2023-11-19T07:24:12;63.58;;;12.07;;
68074;SDS011;54864;52.002;5.468;2023-11-19T07:25:34;54.37;;;11.10;;
68074;SDS011;54864;52.002;5.468;2023-11-19T07:26:57;51.63;;;10.90;;
68074;SDS011;54864;52.002;5.468;2023-11-19T07:28:18;56.00;;;12.02;;
68074;SDS011;54864;52.002;5.468;2023-11-19T07:29:44;53.70;;;11.15;;
68074;SDS011;54864;52.002;5.468;2023-11-19T07:31:05;60.33;;;12.82;;
68074;SDS011;54864;52.002;5.468;2023-11-19T07:32:30;55.28;;;11.63;;
68074;SDS011;54864;52.002;5.468;2023-11-19T07:33:51;50.38;;;11.02;;
68074;SDS011;54864;52.002;5.468;2023-11-19T07:35:14;66.75;;;12.35;;
68074;SDS011;54864;52.002;5.468;2023-11-19T07:36:36;59.33;;;12.35;;
68074;SDS011;54864;52.002;5.468;2023-11-19T07:37:58;50.42;;;11.77;;
68074;SDS011;54864;52.002;5.468;2023-11-19T07:39:19;61.75;;;12.40;;
68074;SDS011;54864;52.002;5.468;2023-11-19T07:40:42;55.03;;;12.45;;
68074;SDS011;54864;52.002;5.468;2023-11-19T07:42:04;64.88;;;12.23;;
68074;SDS011;54864;52.002;5.468;2023-11-19T07:43:27;57.58;;;12.70;;
68074;SDS011;54864;52.002;5.468;2023-11-19T07:44:49;55.75;;;11.50;;
68074;SDS011;54864;52.002;5.468;2023-11-19T07:46:11;54.53;;;12.32;;
68074;SDS011;54864;52.002;5.468;2023-11-19T07:47:33;62.90;;;11.60;;
68074;SDS011;54864;52.002;5.468;2023-11-19T07:48:55;69.03;;;12.05;;
68074;SDS011;54864;52.002;5.468;2023-11-19T07:50:16;58.45;;;12.50;;
68074;SDS011;54864;52.002;5.468;2023-11-19T07:51:40;52.83;;;11.25;;
68074;SDS011;54864;52.002;5.468;2023-11-19T07:53:02;57.55;;;11.80;;
68074;SDS011;54864;52.002;5.468;2023-11-19T07:54:25;53.97;;;10.90;;
68074;SDS011;54864;52.002;5.468;2023-11-19T07:55:46;57.47;;;13.00;;
68074;SDS011;54864;52.002;5.468;2023-11-19T07:57:08;56.25;;;11.93;;
68074;SDS011;54864;52.002;5.468;2023-11-19T07:58:30;57.90;;;11.68;;
68074;SDS011;54864;52.002;5.468;2023-11-19T07:59:54;58.50;;;12.32;;
68074;SDS011;54864;52.002;5.468;2023-11-19T08:01:15;54.38;;;11.40;;
68074;SDS011;54864;52.002;5.468;2023-11-19T08:02:39;51.00;;;11.57;;
68074;SDS011;54864;52.002;5.468;2023-11-19T08:04:00;54.53;;;12.32;;